createdAt,value
2022-09-23T00:00:46.498Z,9.63
2022-09-23T00:03:13.375Z,9.59
2022-09-23T00:05:39.930Z,9.52
2022-09-23T00:08:08.049Z,9.54
2022-09-23T00:10:38.173Z,9.52
2022-09-23T00:13:06.088Z,9.51
2022-09-23T00:15:38.241Z,9.51
2022-09-23T00:18:04.718Z,9.54
2022-09-23T00:20:33.702Z,9.51
2022-09-23T00:23:00.531Z,9.50
2022-09-23T00:25:29.693Z,9.47
2022-09-23T00:27:57.135Z,9.47
2022-09-23T00:30:23.618Z,9.42
2022-09-23T00:32:50.212Z,9.44
2022-09-23T00:35:16.669Z,9.46
2022-09-23T00:37:43.081Z,9.47
2022-09-23T00:40:12.239Z,9.38
2022-09-23T00:42:46.731Z,9.42
2022-09-23T00:45:13.406Z,9.11
2022-09-23T00:47:48.240Z,9.39
2022-09-23T00:50:24.549Z,9.37
2022-09-23T00:52:54.087Z,9.37
2022-09-23T00:55:30.325Z,9.33
2022-09-23T00:57:59.153Z,9.27
2022-09-23T01:00:25.606Z,9.23
2022-09-23T01:02:52.205Z,9.20
2022-09-23T01:05:18.945Z,9.21
2022-09-23T01:07:45.860Z,9.20
2022-09-23T01:10:15.603Z,9.13
2022-09-23T01:13:23.364Z,9.11
2022-09-23T01:16:12.208Z,9.06
2022-09-23T01:19:15.690Z,9.06
2022-09-23T01:21:52.646Z,9.03
2022-09-23T01:24:25.221Z,9.06
2022-09-23T01:27:02.299Z,9.05
2022-09-23T01:29:50.831Z,9.07
2022-09-23T01:32:35.785Z,9.06
2022-09-23T01:35:18.835Z,9.05
2022-09-23T01:38:09.623Z,9.02
2022-09-23T01:40:51.903Z,9.03
2022-09-23T01:43:34.952Z,8.96
2022-09-23T01:46:07.418Z,8.98
2022-09-23T01:48:59.941Z,9.01
2022-09-23T01:51:41.533Z,8.98
2022-09-23T01:54:22.452Z,8.95
2022-09-23T01:57:02.901Z,8.98
2022-09-23T01:59:35.023Z,8.95
2022-09-23T02:02:11.090Z,8.92
2022-09-23T02:04:45.595Z,8.85
2022-09-23T02:07:25.235Z,8.83
2022-09-23T02:10:05.759Z,8.83
2022-09-23T02:12:35.670Z,8.82
2022-09-23T02:15:07.164Z,8.81
2022-09-23T02:17:40.030Z,8.84
2022-09-23T02:20:08.024Z,8.88
2022-09-23T02:22:47.494Z,8.90
2022-09-23T02:25:17.155Z,8.91
2022-09-23T02:28:01.789Z,8.93
2022-09-23T02:30:32.204Z,8.97
2022-09-23T02:33:11.812Z,9.00
2022-09-23T02:35:53.855Z,9.01
2022-09-23T02:38:39.949Z,9.03
2022-09-23T02:41:15.283Z,9.04
2022-09-23T02:43:54.692Z,9.07
2022-09-23T02:46:23.018Z,9.06
2022-09-23T02:48:56.659Z,9.06
2022-09-23T02:51:28.803Z,9.01
2022-09-23T02:53:57.558Z,9.07
2022-09-23T02:56:24.594Z,8.90
2022-09-23T02:58:55.082Z,8.99
2022-09-23T03:01:52.866Z,9.07
2022-09-23T03:04:34.446Z,9.05
2022-09-23T03:07:08.747Z,9.00
2022-09-23T03:09:58.359Z,8.93
2022-09-23T03:12:47.742Z,8.93
2022-09-23T03:15:20.955Z,8.93
2022-09-23T03:18:03.554Z,8.89
2022-09-23T03:20:39.961Z,8.86
2022-09-23T03:23:10.595Z,8.85
2022-09-23T03:25:41.178Z,8.73
2022-09-23T03:28:09.706Z,8.79
2022-09-23T03:30:37.432Z,8.77
2022-09-23T03:33:08.124Z,8.77
2022-09-23T03:35:58.001Z,8.75
2022-09-23T03:38:31.238Z,8.69
2022-09-23T03:41:02.888Z,8.66
2022-09-23T03:43:30.123Z,8.66
2022-09-23T03:45:57.579Z,8.64
2022-09-23T03:48:24.956Z,8.63
2022-09-23T03:50:51.432Z,8.61
2022-09-23T03:53:18.304Z,8.59
2022-09-23T03:55:46.560Z,8.51
2022-09-23T03:58:12.953Z,8.49
2022-09-23T04:00:39.601Z,8.49
2022-09-23T04:03:10.870Z,8.46
2022-09-23T04:05:38.126Z,8.45
2022-09-23T04:08:04.639Z,8.44
2022-09-23T04:10:31.056Z,8.46
2022-09-23T04:12:57.457Z,8.46
2022-09-23T04:15:23.891Z,8.41
2022-09-23T04:17:50.293Z,8.33
2022-09-23T04:20:17.281Z,8.45
2022-09-23T04:22:43.909Z,8.43
2022-09-23T04:25:10.447Z,8.45
2022-09-23T04:27:38.092Z,8.43
2022-09-23T04:30:06.350Z,8.47
2022-09-23T04:32:32.847Z,8.47
2022-09-23T04:34:59.249Z,8.48
2022-09-23T04:37:25.671Z,8.49
2022-09-23T04:39:52.214Z,8.49
2022-09-23T04:42:18.605Z,8.50
2022-09-23T04:44:45.032Z,8.46
2022-09-23T04:47:11.471Z,8.47
2022-09-23T04:49:38.351Z,8.41
2022-09-23T04:52:05.721Z,8.43
2022-09-23T04:54:32.883Z,8.37
2022-09-23T04:56:59.367Z,8.44
2022-09-23T04:59:25.790Z,8.38
2022-09-23T05:01:55.340Z,8.41
2022-09-23T05:04:22.795Z,8.43
2022-09-23T05:06:49.213Z,8.43
2022-09-23T05:09:17.416Z,8.43
2022-09-23T05:11:44.299Z,8.41
2022-09-23T05:14:11.006Z,8.40
2022-09-23T05:16:37.662Z,8.41
2022-09-23T05:19:04.211Z,8.43
2022-09-23T05:21:31.280Z,8.46
2022-09-23T05:24:01.769Z,8.45
2022-09-23T05:26:31.342Z,8.44
2022-09-23T05:28:58.507Z,8.39
2022-09-23T05:31:27.318Z,8.38
2022-09-23T05:33:59.006Z,8.39
2022-09-23T05:36:27.463Z,8.36
2022-09-23T05:38:56.475Z,8.38
2022-09-23T05:41:24.323Z,8.29
2022-09-23T05:43:52.278Z,8.05
2022-09-23T05:46:21.193Z,8.19
2022-09-23T05:48:48.014Z,8.14
2022-09-23T05:51:18.368Z,8.13
2022-09-23T05:53:45.524Z,8.19
2022-09-23T05:56:17.663Z,8.05
2022-09-23T05:58:44.778Z,8.29
2022-09-23T06:01:11.349Z,8.41
2022-09-23T06:03:38.171Z,8.48
2022-09-23T06:06:05.287Z,8.55
2022-09-23T06:08:33.599Z,8.61
2022-09-23T06:11:08.282Z,8.71
2022-09-23T06:13:38.068Z,8.78
2022-09-23T06:16:09.850Z,8.92
2022-09-23T06:18:39.383Z,9.04
2022-09-23T06:21:06.732Z,9.16
2022-09-23T06:23:34.535Z,9.30
2022-09-23T06:26:04.780Z,9.47
2022-09-23T06:28:37.139Z,9.79
2022-09-23T06:31:12.856Z,10.12
2022-09-23T06:33:40.414Z,10.41
2022-09-23T06:36:07.968Z,10.71
2022-09-23T06:38:34.905Z,10.98
2022-09-23T06:41:03.151Z,11.29
2022-09-23T06:43:30.366Z,11.56
2022-09-23T06:46:01.677Z,12.01
2022-09-23T06:48:28.784Z,12.41
2022-09-23T06:50:59.592Z,12.81
2022-09-23T06:53:26.064Z,13.25
2022-09-23T06:56:02.561Z,13.74
2022-09-23T06:58:31.706Z,14.26
2022-09-23T07:01:07.159Z,14.63
2022-09-23T07:03:34.841Z,14.84
2022-09-23T07:06:01.979Z,15.14
2022-09-23T07:08:29.883Z,15.36
2022-09-23T07:10:59.000Z,15.44
2022-09-23T07:13:26.006Z,15.40
2022-09-23T07:15:54.145Z,15.41
2022-09-23T07:18:24.432Z,15.24
2022-09-23T07:20:51.909Z,15.06
2022-09-23T07:23:18.713Z,15.01
2022-09-23T07:25:50.362Z,14.90
2022-09-23T07:28:18.003Z,14.76
2022-09-23T07:30:54.676Z,14.65
2022-09-23T07:33:32.196Z,14.61
2022-09-23T07:35:59.624Z,14.36
2022-09-23T07:38:30.070Z,14.53
2022-09-23T07:41:08.903Z,14.48
2022-09-23T07:43:35.748Z,14.45
2022-09-23T07:46:05.785Z,14.33
2022-09-23T07:48:34.511Z,14.38
2022-09-23T07:51:06.767Z,14.35
2022-09-23T07:53:33.392Z,14.16
2022-09-23T07:55:59.794Z,13.90
2022-09-23T07:58:26.251Z,13.92
2022-09-23T08:00:53.643Z,13.78
2022-09-23T08:03:20.840Z,13.98
2022-09-23T08:05:47.321Z,14.19
2022-09-23T08:08:14.185Z,14.07
2022-09-23T08:10:40.705Z,14.02
2022-09-23T08:13:07.174Z,13.82
2022-09-23T08:15:34.358Z,13.60
2022-09-23T08:18:01.205Z,13.83
2022-09-23T08:20:47.895Z,14.11
2022-09-23T08:23:16.135Z,14.32
2022-09-23T08:25:46.748Z,14.31
2022-09-23T08:28:18.671Z,14.69
2022-09-23T08:30:48.796Z,14.74
2022-09-23T08:33:19.679Z,15.17
2022-09-23T08:35:49.440Z,15.54
2022-09-23T08:38:16.195Z,15.19
2022-09-23T08:40:47.346Z,15.51
2022-09-23T08:43:27.646Z,15.34
2022-09-23T08:45:57.242Z,14.88
2022-09-23T08:48:37.508Z,14.91
2022-09-23T08:51:12.641Z,15.13
2022-09-23T08:53:40.388Z,15.10
2022-09-23T08:56:11.676Z,15.25
2022-09-23T08:59:12.087Z,15.31
2022-09-23T09:01:48.553Z,15.19
2022-09-23T09:04:27.568Z,15.23
2022-09-23T09:07:35.158Z,15.37
2022-09-23T09:10:16.395Z,15.51
2022-09-23T09:12:49.787Z,15.95
2022-09-23T09:15:20.861Z,15.81
2022-09-23T09:18:07.844Z,15.97
2022-09-23T09:20:49.490Z,16.05
2022-09-23T09:23:37.503Z,16.58
2022-09-23T09:26:05.916Z,17.04
2022-09-23T09:28:40.636Z,17.29
2022-09-23T09:31:26.457Z,17.49
2022-09-23T09:34:02.599Z,17.66
2022-09-23T09:36:38.038Z,17.72
2022-09-23T09:39:04.919Z,17.64
2022-09-23T09:41:31.462Z,17.80
2022-09-23T09:44:00.855Z,17.73
2022-09-23T09:46:45.130Z,17.93
2022-09-23T09:49:23.091Z,18.11
2022-09-23T09:52:12.520Z,18.32
2022-09-23T09:54:39.610Z,18.53
2022-09-23T09:57:16.336Z,18.69
2022-09-23T09:59:44.012Z,18.51
2022-09-23T10:02:30.397Z,19.08
2022-09-23T10:05:00.362Z,19.09
2022-09-23T10:07:30.417Z,19.15
2022-09-23T10:10:01.866Z,18.80
2022-09-23T10:12:46.710Z,18.96
2022-09-23T10:15:44.750Z,18.91
2022-09-23T10:18:39.160Z,18.95
2022-09-23T10:21:10.739Z,19.11
2022-09-23T10:24:07.412Z,19.09
2022-09-23T10:26:44.692Z,18.92
2022-09-23T10:29:33.930Z,19.38
2022-09-23T10:32:30.172Z,19.86
2022-09-23T10:35:21.011Z,19.91
2022-09-23T10:37:55.730Z,19.72
2022-09-23T10:40:57.930Z,19.88
2022-09-23T10:44:16.426Z,20.28
2022-09-23T10:47:01.608Z,20.60
2022-09-23T10:49:53.453Z,20.89
2022-09-23T10:52:41.478Z,20.93
2022-09-23T10:55:31.489Z,20.87
2022-09-23T10:58:27.351Z,20.74
2022-09-23T11:01:15.141Z,21.30
2022-09-23T11:03:54.207Z,21.02
2022-09-23T11:06:20.568Z,20.87
2022-09-23T11:08:59.209Z,20.40
2022-09-23T11:11:46.015Z,20.54
2022-09-23T11:14:51.488Z,21.04
2022-09-23T11:18:06.537Z,20.80
2022-09-23T11:20:57.981Z,20.46
2022-09-23T11:23:47.909Z,20.38
2022-09-23T11:26:33.995Z,20.82
2022-09-23T11:29:17.184Z,20.75
2022-09-23T11:32:27.765Z,21.05
2022-09-23T11:35:11.704Z,20.78
2022-09-23T11:37:47.833Z,21.17
2022-09-23T11:40:20.760Z,21.33
2022-09-23T11:42:55.456Z,21.45
2022-09-23T11:45:29.044Z,21.79
2022-09-23T11:48:00.564Z,21.92
2022-09-23T11:50:36.840Z,22.05
2022-09-23T11:53:03.163Z,22.02
2022-09-23T11:55:49.111Z,22.22
2022-09-23T11:58:34.782Z,22.19
2022-09-23T12:01:07.677Z,22.21
2022-09-23T12:03:44.971Z,21.86
2022-09-23T12:06:22.953Z,21.56
2022-09-23T12:08:59.392Z,21.38
2022-09-23T12:11:32.031Z,21.27
2022-09-23T12:14:19.279Z,21.33
2022-09-23T12:16:53.668Z,21.30
2022-09-23T12:19:42.717Z,21.10
2022-09-23T12:22:21.050Z,20.62
2022-09-23T12:25:29.328Z,20.23
2022-09-23T12:28:21.017Z,19.82
2022-09-23T12:30:48.791Z,20.12
2022-09-23T12:33:27.677Z,20.16
2022-09-23T12:36:13.663Z,20.38
2022-09-23T12:38:55.824Z,20.48
2022-09-23T12:41:37.004Z,20.24
2022-09-23T12:44:12.877Z,20.01
2022-09-23T12:46:48.444Z,19.39
2022-09-23T12:49:28.152Z,19.46
2022-09-23T12:52:16.070Z,19.45
2022-09-23T12:54:45.107Z,19.29
2022-09-23T12:57:34.392Z,19.30
2022-09-23T13:00:07.192Z,19.40
2022-09-23T13:03:11.125Z,19.20
2022-09-23T13:06:09.843Z,18.88
2022-09-23T13:08:39.068Z,19.26
2022-09-23T13:11:13.973Z,19.28
2022-09-23T13:13:44.382Z,19.23
2022-09-23T13:16:43.595Z,19.13
2022-09-23T13:19:28.395Z,18.82
2022-09-23T13:21:54.888Z,18.71
2022-09-23T13:24:31.053Z,18.68
2022-09-23T13:27:11.310Z,18.59
2022-09-23T13:29:51.847Z,18.48
2022-09-23T13:32:21.258Z,18.35
2022-09-23T13:35:04.179Z,18.47
2022-09-23T13:37:50.851Z,18.54
2022-09-23T13:40:29.204Z,18.58
2022-09-23T13:43:09.167Z,18.54
2022-09-23T13:45:43.525Z,18.69
2022-09-23T13:48:18.238Z,18.67
2022-09-23T13:50:50.180Z,18.68
2022-09-23T13:53:31.875Z,18.65
2022-09-23T13:56:13.163Z,18.57
2022-09-23T13:58:40.483Z,18.57
2022-09-23T14:01:22.428Z,18.49
2022-09-23T14:03:49.045Z,18.55
2022-09-23T14:06:16.592Z,18.58
2022-09-23T14:08:50.751Z,18.34
2022-09-23T14:11:19.709Z,18.26
2022-09-23T14:13:49.003Z,18.12
2022-09-23T14:16:17.203Z,18.22
2022-09-23T14:18:46.816Z,18.21
2022-09-23T14:21:34.876Z,18.17
2022-09-23T14:24:10.560Z,18.17
2022-09-23T14:26:38.491Z,18.24
2022-09-23T14:29:06.665Z,18.33
2022-09-23T14:31:33.398Z,18.35
2022-09-23T14:33:59.967Z,18.25
2022-09-23T14:36:45.139Z,18.19
2022-09-23T14:39:12.535Z,18.07
2022-09-23T14:41:45.503Z,18.12
2022-09-23T14:44:22.046Z,18.07
2022-09-23T14:46:58.245Z,18.11
2022-09-23T14:49:25.561Z,17.99
2022-09-23T14:52:01.337Z,17.96
2022-09-23T14:54:45.920Z,17.96
2022-09-23T14:57:29.005Z,18.01
2022-09-23T14:59:59.089Z,17.94
2022-09-23T15:02:59.123Z,17.79
2022-09-23T15:05:42.029Z,17.71
2022-09-23T15:08:13.535Z,17.75
2022-09-23T15:10:40.616Z,17.70
2022-09-23T15:13:16.742Z,17.77
2022-09-23T15:15:43.972Z,17.79
2022-09-23T15:18:24.620Z,17.84
2022-09-23T15:20:53.513Z,17.85
2022-09-23T15:23:41.724Z,17.89
2022-09-23T15:26:45.192Z,17.89
2022-09-23T15:29:11.662Z,17.91
2022-09-23T15:31:38.950Z,17.93
2022-09-23T15:34:05.726Z,17.93
2022-09-23T15:36:32.618Z,17.90
2022-09-23T15:39:04.353Z,17.86
2022-09-23T15:41:32.332Z,17.75
2022-09-23T15:44:05.487Z,17.10
2022-09-23T15:46:33.685Z,17.59
2022-09-23T15:49:08.846Z,17.64
2022-09-23T15:51:38.349Z,17.65
2022-09-23T15:54:14.025Z,17.68
2022-09-23T15:56:40.488Z,17.63
2022-09-23T15:59:06.958Z,17.67
2022-09-23T16:01:36.501Z,17.63
2022-09-23T16:04:04.626Z,17.54
2022-09-23T16:06:32.248Z,17.52
2022-09-23T16:08:58.661Z,17.49
2022-09-23T16:11:31.634Z,17.50
2022-09-23T16:14:00.482Z,17.50
2022-09-23T16:16:27.875Z,17.52
2022-09-23T16:18:54.657Z,17.54
2022-09-23T16:21:24.939Z,17.56
2022-09-23T16:23:51.474Z,17.54
2022-09-23T16:26:30.405Z,17.51
2022-09-23T16:28:58.253Z,17.45
2022-09-23T16:31:25.906Z,17.36
2022-09-23T16:33:53.447Z,17.27
2022-09-23T16:36:28.876Z,17.25
2022-09-23T16:38:55.647Z,17.25
2022-09-23T16:41:23.448Z,17.23
2022-09-23T16:43:53.574Z,17.21
2022-09-23T16:46:20.701Z,17.20
2022-09-23T16:48:52.362Z,17.20
2022-09-23T16:51:21.546Z,17.20
2022-09-23T16:53:51.582Z,17.20
2022-09-23T16:56:25.721Z,17.18
2022-09-23T16:58:54.653Z,17.21
2022-09-23T17:01:44.970Z,17.21
2022-09-23T17:04:13.062Z,17.20
2022-09-23T17:06:50.103Z,17.18
2022-09-23T17:09:23.189Z,17.15
2022-09-23T17:12:00.133Z,17.04
2022-09-23T17:14:31.030Z,17.02
2022-09-23T17:16:58.878Z,17.02
2022-09-23T17:19:25.422Z,16.99
2022-09-23T17:21:53.297Z,16.97
2022-09-23T17:24:19.753Z,16.94
2022-09-23T17:26:49.354Z,16.91
2022-09-23T17:29:19.164Z,16.89
2022-09-23T17:31:46.636Z,16.84
2022-09-23T17:34:13.300Z,16.78
2022-09-23T17:36:40.374Z,16.74
2022-09-23T17:39:07.039Z,16.69
2022-09-23T17:41:33.746Z,16.58
2022-09-23T17:44:00.555Z,16.40
2022-09-23T17:46:30.083Z,16.49
2022-09-23T17:48:57.044Z,16.46
2022-09-23T17:51:25.272Z,16.38
2022-09-23T17:53:51.792Z,16.42
2022-09-23T17:56:27.062Z,16.35
2022-09-23T17:58:53.966Z,16.29
2022-09-23T18:01:25.824Z,16.20
2022-09-23T18:03:57.122Z,16.11
2022-09-23T18:06:25.925Z,16.08
2022-09-23T18:08:52.602Z,16.02
2022-09-23T18:11:20.401Z,15.95
2022-09-23T18:13:52.633Z,15.82
2022-09-23T18:16:20.540Z,15.79
2022-09-23T18:18:55.987Z,15.74
2022-09-23T18:21:24.828Z,15.71
2022-09-23T18:23:51.780Z,15.66
2022-09-23T18:26:21.575Z,15.56
2022-09-23T18:28:49.225Z,15.54
2022-09-23T18:31:16.173Z,15.44
2022-09-23T18:33:42.804Z,15.50
2022-09-23T18:36:09.754Z,15.47
2022-09-23T18:38:36.242Z,15.44
2022-09-23T18:41:02.786Z,15.41
2022-09-23T18:43:37.471Z,15.37
2022-09-23T18:46:11.635Z,15.36
2022-09-23T18:49:07.101Z,15.32
2022-09-23T18:51:36.562Z,15.32
2022-09-23T18:54:05.816Z,15.32
2022-09-23T18:56:41.979Z,15.27
2022-09-23T18:59:12.894Z,15.25
2022-09-23T19:01:39.483Z,15.15
2022-09-23T19:04:07.125Z,15.22
2022-09-23T19:06:35.015Z,15.16
2022-09-23T19:09:01.769Z,15.18
2022-09-23T19:11:28.223Z,15.18
2022-09-23T19:13:56.287Z,15.18
2022-09-23T19:16:26.055Z,15.18
2022-09-23T19:18:53.558Z,15.18
2022-09-23T19:21:22.337Z,15.20
2022-09-23T19:24:14.333Z,15.18
2022-09-23T19:26:41.468Z,15.16
2022-09-23T19:29:12.892Z,15.00
2022-09-23T19:31:40.223Z,15.09
2022-09-23T19:34:11.716Z,15.04
2022-09-23T19:36:40.892Z,15.03
2022-09-23T19:39:11.851Z,14.99
2022-09-23T19:41:38.295Z,14.96
2022-09-23T19:44:07.643Z,14.90
2022-09-23T19:46:39.430Z,14.85
2022-09-23T19:49:07.253Z,14.81
2022-09-23T19:51:34.636Z,14.63
2022-09-23T19:54:01.971Z,14.80
2022-09-23T19:56:29.727Z,14.81
2022-09-23T19:58:58.165Z,14.83
2022-09-23T20:01:26.577Z,14.83
2022-09-23T20:03:53.496Z,14.84
2022-09-23T20:06:20.428Z,14.82
2022-09-23T20:08:47.882Z,14.83
2022-09-23T20:11:26.227Z,14.83
2022-09-23T20:14:02.169Z,14.83
2022-09-23T20:16:32.344Z,14.83
2022-09-23T20:18:59.861Z,14.83
2022-09-23T20:21:27.415Z,14.81
2022-09-23T20:23:53.822Z,14.81
2022-09-23T20:26:38.649Z,14.80
2022-09-23T20:29:05.214Z,14.79
2022-09-23T20:31:32.222Z,14.82
2022-09-23T20:33:58.863Z,14.80
2022-09-23T20:36:26.611Z,14.84
2022-09-23T20:38:57.368Z,14.73
2022-09-23T20:41:23.880Z,14.84
2022-09-23T20:44:00.575Z,14.83
2022-09-23T20:46:28.935Z,14.75
2022-09-23T20:48:56.680Z,14.72
2022-09-23T20:51:24.583Z,14.62
2022-09-23T20:53:53.032Z,14.68
2022-09-23T20:56:23.576Z,14.66
2022-09-23T20:58:50.874Z,14.63
2022-09-23T21:01:18.006Z,14.60
2022-09-23T21:03:47.156Z,14.54
2022-09-23T21:06:15.681Z,14.48
2022-09-23T21:08:43.488Z,14.12
2022-09-23T21:11:15.657Z,14.47
2022-09-23T21:13:50.666Z,14.37
2022-09-23T21:16:19.922Z,14.23
2022-09-23T21:18:48.036Z,14.42
2022-09-23T21:21:14.992Z,14.42
2022-09-23T21:23:43.435Z,14.40
2022-09-23T21:26:12.751Z,14.39
2022-09-23T21:28:41.896Z,14.37
2022-09-23T21:31:17.797Z,14.27
2022-09-23T21:33:44.281Z,14.33
2022-09-23T21:36:10.703Z,14.27
2022-09-23T21:38:38.113Z,14.26
2022-09-23T21:41:11.070Z,14.22
2022-09-23T21:43:40.160Z,14.24
2022-09-23T21:46:09.084Z,14.14
2022-09-23T21:48:37.452Z,14.19
2022-09-23T21:51:06.555Z,14.16
2022-09-23T21:53:36.365Z,14.15
2022-09-23T21:56:09.836Z,14.13
2022-09-23T21:58:38.101Z,14.12
2022-09-23T22:01:14.120Z,14.13
2022-09-23T22:03:43.327Z,14.07
2022-09-23T22:06:12.979Z,14.06
2022-09-23T22:08:42.398Z,13.97
2022-09-23T22:11:34.376Z,14.08
2022-09-23T22:14:03.114Z,14.09
2022-09-23T22:16:30.278Z,14.10
2022-09-23T22:18:59.158Z,14.06
2022-09-23T22:21:27.777Z,14.07
2022-09-23T22:24:01.069Z,14.05
2022-09-23T22:26:29.529Z,14.06
2022-09-23T22:29:14.292Z,14.09
2022-09-23T22:31:59.138Z,14.08
2022-09-23T22:34:48.462Z,14.05
2022-09-23T22:37:20.141Z,14.04
2022-09-23T22:39:47.058Z,14.04
2022-09-23T22:42:14.210Z,14.03
2022-09-23T22:44:40.673Z,14.03
2022-09-23T22:47:08.075Z,14.01
2022-09-23T22:49:34.937Z,14.04
2022-09-23T22:52:03.993Z,14.05
2022-09-23T22:54:33.997Z,14.05
2022-09-23T22:57:03.182Z,14.09
2022-09-23T22:59:30.145Z,13.95
2022-09-23T23:01:57.189Z,14.17
2022-09-23T23:04:23.792Z,14.19
2022-09-23T23:06:50.240Z,14.18
2022-09-23T23:09:18.467Z,14.17
2022-09-23T23:11:45.489Z,14.11
2022-09-23T23:14:14.049Z,14.24
2022-09-23T23:16:42.076Z,14.23
2022-09-23T23:19:13.419Z,14.01
2022-09-23T23:21:44.793Z,14.20
2022-09-23T23:24:16.504Z,14.17
2022-09-23T23:26:43.194Z,14.14
2022-09-23T23:29:14.570Z,14.12
2022-09-23T23:31:41.458Z,14.10
2022-09-23T23:34:12.021Z,14.06
2022-09-23T23:36:38.498Z,14.07
2022-09-23T23:39:05.239Z,14.05
2022-09-23T23:41:31.667Z,14.03
2022-09-23T23:44:00.008Z,14.01
2022-09-23T23:46:28.637Z,13.94
2022-09-23T23:48:56.905Z,13.85
2022-09-23T23:51:26.264Z,13.95
2022-09-23T23:53:53.939Z,13.85
2022-09-23T23:56:22.374Z,13.89
2022-09-23T23:58:57.138Z,13.92
